createdAt,value
2023-05-17T00:01:58.870Z,10.60
2023-05-17T00:04:46.950Z,10.70
2023-05-17T00:07:33.719Z,10.80
2023-05-17T00:10:20.301Z,10.70
2023-05-17T00:13:07.043Z,10.60
2023-05-17T00:15:53.861Z,10.70
2023-05-17T00:18:40.398Z,10.50
2023-05-17T00:21:28.679Z,10.50
2023-05-17T00:24:15.165Z,10.50
2023-05-17T00:27:01.812Z,10.60
2023-05-17T00:29:48.165Z,10.60
2023-05-17T00:32:34.573Z,10.70
2023-05-17T00:35:21.716Z,10.60
2023-05-17T00:38:09.691Z,10.50
2023-05-17T00:40:56.046Z,10.50
2023-05-17T00:43:42.256Z,10.50
2023-05-17T00:46:28.684Z,10.40
2023-05-17T00:49:15.082Z,10.50
2023-05-17T00:52:01.801Z,10.60
2023-05-17T00:54:49.816Z,10.20
2023-05-17T00:57:39.696Z,10.30
2023-05-17T01:00:26.470Z,10.20
2023-05-17T01:03:13.669Z,10.10
2023-05-17T01:06:00.484Z,10.20
2023-05-17T01:08:46.836Z,10.20
2023-05-17T01:11:43.548Z,10.20
2023-05-17T01:14:42.588Z,10.30
2023-05-17T01:17:40.766Z,10.30
2023-05-17T01:20:30.409Z,10.30
2023-05-17T01:23:32.552Z,10.30
2023-05-17T01:26:22.779Z,10.20
2023-05-17T01:29:11.279Z,10.30
2023-05-17T01:31:58.701Z,10.30
2023-05-17T01:34:45.883Z,10.30
2023-05-17T01:37:32.442Z,10.30
2023-05-17T01:40:19.887Z,10.20
2023-05-17T01:43:12.919Z,10.40
2023-05-17T01:46:10.452Z,10.30
2023-05-17T01:49:06.587Z,10.30
2023-05-17T01:52:04.466Z,10.20
2023-05-17T01:54:55.575Z,10.20
2023-05-17T01:57:45.877Z,10.30
2023-05-17T02:00:32.523Z,10.20
2023-05-17T02:03:21.502Z,10.30
2023-05-17T02:06:08.826Z,10.30
2023-05-17T02:08:55.305Z,10.30
2023-05-17T02:11:41.750Z,10.30
2023-05-17T02:14:28.410Z,10.20
2023-05-17T02:17:14.806Z,10.00
2023-05-17T02:20:03.034Z,10.10
2023-05-17T02:22:49.937Z,10.20
2023-05-17T02:25:36.818Z,10.10
2023-05-17T02:28:23.285Z,10.20
2023-05-17T02:31:09.967Z,10.20
2023-05-17T02:33:56.838Z,10.20
2023-05-17T02:36:45.138Z,10.00
2023-05-17T02:39:33.286Z,10.10
2023-05-17T02:42:20.062Z,10.10
2023-05-17T02:45:07.343Z,10.00
2023-05-17T02:47:54.310Z,10.10
2023-05-17T02:50:41.211Z,10.00
2023-05-17T02:53:28.969Z,10.00
2023-05-17T02:56:15.356Z,10.10
2023-05-17T02:59:02.307Z,10.10
2023-05-17T03:01:49.836Z,10.00
2023-05-17T03:04:37.016Z,10.00
2023-05-17T03:07:23.588Z,10.10
2023-05-17T03:10:11.985Z,10.10
2023-05-17T03:12:58.464Z,10.10
2023-05-17T03:15:44.875Z,10.00
2023-05-17T03:18:31.547Z,9.90
2023-05-17T03:21:18.212Z,10.00
2023-05-17T03:24:05.058Z,10.00
2023-05-17T03:26:52.809Z,9.80
2023-05-17T03:29:39.354Z,9.80
2023-05-17T03:32:26.050Z,9.90
2023-05-17T03:35:12.889Z,9.90
2023-05-17T03:37:59.760Z,9.90
2023-05-17T03:40:46.082Z,9.80
2023-05-17T03:43:33.942Z,9.80
2023-05-17T03:46:20.454Z,9.90
2023-05-17T03:49:06.957Z,9.90
2023-05-17T03:51:54.002Z,9.80
2023-05-17T03:54:41.891Z,9.70
2023-05-17T03:57:28.433Z,9.60
2023-05-17T04:00:21.794Z,9.70
2023-05-17T04:03:08.349Z,9.60
2023-05-17T04:05:56.146Z,9.70
2023-05-17T04:08:42.952Z,9.50
2023-05-17T04:11:29.823Z,9.60
2023-05-17T04:14:16.480Z,9.70
2023-05-17T04:17:04.372Z,9.70
2023-05-17T04:19:51.186Z,9.80
2023-05-17T04:22:37.949Z,9.60
2023-05-17T04:25:25.086Z,9.60
2023-05-17T04:28:11.744Z,8.10
2023-05-17T04:30:58.285Z,9.60
2023-05-17T04:33:46.498Z,9.40
2023-05-17T04:36:33.804Z,9.40
2023-05-17T04:39:21.115Z,9.60
2023-05-17T04:42:07.862Z,9.70
2023-05-17T04:44:54.174Z,9.70
2023-05-17T04:47:40.690Z,9.70
2023-05-17T04:50:29.200Z,9.70
2023-05-17T04:53:16.667Z,9.60
2023-05-17T04:56:04.148Z,9.60
2023-05-17T04:58:52.767Z,9.70
2023-05-17T05:01:39.699Z,9.70
2023-05-17T05:04:26.166Z,9.90
2023-05-17T05:07:14.235Z,9.90
2023-05-17T05:10:01.215Z,9.80
2023-05-17T05:12:48.241Z,10.00
2023-05-17T05:15:34.951Z,10.00
2023-05-17T05:18:21.488Z,10.00
2023-05-17T05:21:08.448Z,10.00
2023-05-17T05:23:56.248Z,10.00
2023-05-17T05:26:42.912Z,10.20
2023-05-17T05:29:29.586Z,10.10
2023-05-17T05:32:17.357Z,10.20
2023-05-17T05:35:03.807Z,10.20
2023-05-17T05:37:50.360Z,10.20
2023-05-17T05:40:38.147Z,10.10
2023-05-17T05:43:24.898Z,10.10
2023-05-17T05:46:12.004Z,10.10
2023-05-17T05:48:58.688Z,10.20
2023-05-17T05:51:45.396Z,10.00
2023-05-17T05:54:31.877Z,10.10
2023-05-17T05:57:19.592Z,10.20
2023-05-17T06:00:07.793Z,10.30
2023-05-17T06:02:55.454Z,10.20
2023-05-17T06:05:42.370Z,10.30
2023-05-17T06:08:29.260Z,10.20
2023-05-17T06:11:15.987Z,10.30
2023-05-17T06:14:03.921Z,10.20
2023-05-17T06:16:50.579Z,10.30
2023-05-17T06:19:37.293Z,10.30
2023-05-17T06:22:24.043Z,10.30
2023-05-17T06:25:11.401Z,10.30
2023-05-17T06:27:57.918Z,10.30
2023-05-17T06:30:46.618Z,10.40
2023-05-17T06:33:33.101Z,10.40
2023-05-17T06:36:19.879Z,10.30
2023-05-17T06:39:06.482Z,10.40
2023-05-17T06:41:53.019Z,10.40
2023-05-17T06:44:39.285Z,10.40
2023-05-17T06:47:27.047Z,10.40
2023-05-17T06:50:13.888Z,10.50
2023-05-17T06:53:00.493Z,10.50
2023-05-17T06:55:47.010Z,10.50
2023-05-17T06:58:35.578Z,10.60
2023-05-17T07:01:22.523Z,10.50
2023-05-17T07:04:10.280Z,10.60
2023-05-17T07:06:57.144Z,10.50
2023-05-17T07:09:43.636Z,10.70
2023-05-17T07:12:30.051Z,10.70
2023-05-17T07:15:16.839Z,10.70
2023-05-17T07:18:03.435Z,10.70
2023-05-17T07:20:51.631Z,10.90
2023-05-17T07:23:38.437Z,11.10
2023-05-17T07:26:25.058Z,11.30
2023-05-17T07:29:13.701Z,11.20
2023-05-17T07:32:00.449Z,11.10
2023-05-17T07:34:46.954Z,11.30
2023-05-17T07:37:35.068Z,11.50
2023-05-17T07:40:22.086Z,11.50
2023-05-17T07:43:08.965Z,11.60
2023-05-17T07:45:55.978Z,11.60
2023-05-17T07:48:42.474Z,11.50
2023-05-17T07:51:29.471Z,11.70
2023-05-17T07:54:26.924Z,11.70
2023-05-17T07:57:13.770Z,11.80
2023-05-17T08:00:00.564Z,11.90
2023-05-17T08:02:47.511Z,12.00
2023-05-17T08:05:34.427Z,12.00
2023-05-17T08:08:21.838Z,11.90
2023-05-17T08:11:11.031Z,11.90
2023-05-17T08:13:57.382Z,12.10
2023-05-17T08:16:44.108Z,11.90
2023-05-17T08:19:31.016Z,11.80
2023-05-17T08:22:18.196Z,11.60
2023-05-17T08:25:05.289Z,11.70
2023-05-17T08:27:53.150Z,11.70
2023-05-17T08:30:39.716Z,11.90
2023-05-17T08:33:26.383Z,12.00
2023-05-17T08:36:13.424Z,12.20
2023-05-17T08:39:00.292Z,11.90
2023-05-17T08:41:48.104Z,12.00
2023-05-17T08:44:38.740Z,11.90
2023-05-17T08:47:29.963Z,11.70
2023-05-17T08:50:17.936Z,11.80
2023-05-17T08:53:04.623Z,12.10
2023-05-17T08:55:53.269Z,12.30
2023-05-17T08:58:55.568Z,12.60
2023-05-17T09:01:46.635Z,12.80
2023-05-17T09:04:33.137Z,13.10
2023-05-17T09:07:20.338Z,13.30
2023-05-17T09:10:07.937Z,13.70
2023-05-17T09:12:54.926Z,13.70
2023-05-17T09:15:44.576Z,13.30
2023-05-17T09:18:33.697Z,12.70
2023-05-17T09:21:21.879Z,12.50
2023-05-17T09:24:09.057Z,12.90
2023-05-17T09:27:02.964Z,12.80
2023-05-17T09:29:49.915Z,12.90
2023-05-17T09:32:36.449Z,12.70
2023-05-17T09:35:30.863Z,12.70
2023-05-17T09:38:17.816Z,12.70
2023-05-17T09:41:04.436Z,12.80
2023-05-17T09:43:50.920Z,12.80
2023-05-17T09:46:39.837Z,13.30
2023-05-17T09:49:28.533Z,13.30
2023-05-17T09:52:19.117Z,13.20
2023-05-17T09:55:06.711Z,13.20
2023-05-17T09:57:53.363Z,13.00
2023-05-17T10:00:39.754Z,12.80
2023-05-17T10:03:28.444Z,13.00
2023-05-17T10:06:27.797Z,13.10
2023-05-17T10:09:25.229Z,13.00
2023-05-17T10:12:16.032Z,13.10
2023-05-17T10:15:04.981Z,13.50
2023-05-17T10:17:51.835Z,14.00
2023-05-17T10:20:38.918Z,14.00
2023-05-17T10:23:27.574Z,14.10
2023-05-17T10:26:17.071Z,14.20
2023-05-17T10:29:06.497Z,14.20
2023-05-17T10:31:53.374Z,14.00
2023-05-17T10:34:40.815Z,13.90
2023-05-17T10:37:29.479Z,14.70
2023-05-17T10:40:17.814Z,14.10
2023-05-17T10:43:08.189Z,13.70
2023-05-17T10:45:55.522Z,13.70
2023-05-17T10:48:42.170Z,13.90
2023-05-17T10:51:32.574Z,13.90
2023-05-17T10:54:19.399Z,14.00
2023-05-17T10:57:09.035Z,14.30
2023-05-17T11:00:01.889Z,14.50
2023-05-17T11:02:49.325Z,15.10
2023-05-17T11:05:36.110Z,14.90
2023-05-17T11:08:22.970Z,14.90
2023-05-17T11:11:11.293Z,14.40
2023-05-17T11:13:59.078Z,14.50
2023-05-17T11:16:47.194Z,14.20
2023-05-17T11:19:34.315Z,14.20
2023-05-17T11:22:24.202Z,14.40
2023-05-17T11:25:12.500Z,14.60
2023-05-17T11:27:59.787Z,14.70
2023-05-17T11:30:51.665Z,15.20
2023-05-17T11:33:43.831Z,14.90
2023-05-17T11:36:30.718Z,14.60
2023-05-17T11:39:26.967Z,14.40
2023-05-17T11:42:25.623Z,14.40
2023-05-17T11:45:12.311Z,14.40
2023-05-17T11:47:59.035Z,14.10
2023-05-17T11:50:47.928Z,14.20
2023-05-17T11:53:34.404Z,14.60
2023-05-17T11:56:29.515Z,15.40
2023-05-17T11:59:22.891Z,15.10
2023-05-17T12:02:10.024Z,14.90
2023-05-17T12:04:56.918Z,14.80
2023-05-17T12:07:43.599Z,14.80
2023-05-17T12:10:34.837Z,14.70
2023-05-17T12:13:23.207Z,14.80
2023-05-17T12:16:14.524Z,15.10
2023-05-17T12:19:02.870Z,14.80
2023-05-17T12:21:49.981Z,14.50
2023-05-17T12:24:40.501Z,14.60
2023-05-17T12:27:28.038Z,14.90
2023-05-17T12:30:19.855Z,14.50
2023-05-17T12:33:06.664Z,14.50
2023-05-17T12:35:53.742Z,14.30
2023-05-17T12:38:41.801Z,14.50
2023-05-17T12:41:29.309Z,14.50
2023-05-17T12:44:16.615Z,14.60
2023-05-17T12:47:05.145Z,14.60
2023-05-17T12:49:56.004Z,14.60
2023-05-17T12:52:42.731Z,14.70
2023-05-17T12:55:37.949Z,14.50
2023-05-17T12:58:24.842Z,15.50
2023-05-17T13:01:14.480Z,15.10
2023-05-17T13:04:02.786Z,14.90
2023-05-17T13:06:51.907Z,14.80
2023-05-17T13:09:48.793Z,15.30
2023-05-17T13:12:39.286Z,15.30
2023-05-17T13:15:30.312Z,15.20
2023-05-17T13:18:18.239Z,15.30
2023-05-17T13:21:06.090Z,15.00
2023-05-17T13:23:52.498Z,15.20
2023-05-17T13:26:39.146Z,14.90
2023-05-17T13:29:35.705Z,14.80
2023-05-17T13:32:26.095Z,14.80
2023-05-17T13:35:12.886Z,15.00
2023-05-17T13:38:00.702Z,14.90
2023-05-17T13:40:47.529Z,15.60
2023-05-17T13:43:34.002Z,15.30
2023-05-17T13:46:20.561Z,15.10
2023-05-17T13:49:07.964Z,15.10
2023-05-17T13:51:54.703Z,15.10
2023-05-17T13:54:42.443Z,15.20
2023-05-17T13:57:29.202Z,15.30
2023-05-17T14:00:16.375Z,15.20
2023-05-17T14:03:03.202Z,15.20
2023-05-17T14:05:51.729Z,15.10
2023-05-17T14:08:38.356Z,15.20
2023-05-17T14:11:26.737Z,15.10
2023-05-17T14:14:13.674Z,15.20
2023-05-17T14:17:02.614Z,15.60
2023-05-17T14:19:49.250Z,15.50
2023-05-17T14:22:36.387Z,15.30
2023-05-17T14:25:23.135Z,15.20
2023-05-17T14:28:12.308Z,15.20
2023-05-17T14:30:58.772Z,15.30
2023-05-17T14:33:45.212Z,15.30
2023-05-17T14:36:35.614Z,15.20
2023-05-17T14:39:22.149Z,14.90
2023-05-17T14:42:08.788Z,15.00
2023-05-17T14:44:57.085Z,15.60
2023-05-17T14:47:43.519Z,15.70
2023-05-17T14:50:32.803Z,15.60
2023-05-17T14:53:19.585Z,15.50
2023-05-17T14:56:06.526Z,15.60
2023-05-17T14:58:52.899Z,15.50
2023-05-17T15:01:41.180Z,15.40
2023-05-17T15:04:27.658Z,15.80
2023-05-17T15:07:14.432Z,15.70
2023-05-17T15:10:01.405Z,15.40
2023-05-17T15:12:47.810Z,15.20
2023-05-17T15:15:34.690Z,15.40
2023-05-17T15:18:22.914Z,15.20
2023-05-17T15:21:09.376Z,15.40
2023-05-17T15:23:56.542Z,15.30
2023-05-17T15:26:43.043Z,15.40
2023-05-17T15:29:31.052Z,15.20
2023-05-17T15:32:17.947Z,15.40
2023-05-17T15:35:06.316Z,16.10
2023-05-17T15:37:53.597Z,16.40
2023-05-17T15:40:39.933Z,16.70
2023-05-17T15:43:26.347Z,17.10
2023-05-17T15:46:12.864Z,17.00
2023-05-17T15:48:59.326Z,17.00
2023-05-17T15:51:47.786Z,17.10
2023-05-17T15:54:34.497Z,17.10
2023-05-17T15:57:20.984Z,16.70
2023-05-17T16:00:08.744Z,16.90
2023-05-17T16:02:55.269Z,17.10
2023-05-17T16:05:42.952Z,17.40
2023-05-17T16:08:31.368Z,17.30
2023-05-17T16:11:17.765Z,17.60
2023-05-17T16:14:04.198Z,17.70
2023-05-17T16:16:50.869Z,17.80
2023-05-17T16:19:38.039Z,18.00
2023-05-17T16:22:25.268Z,18.30
2023-05-17T16:25:13.931Z,18.10
2023-05-17T16:28:00.654Z,17.90
2023-05-17T16:30:47.283Z,17.50
2023-05-17T16:33:35.850Z,17.20
2023-05-17T16:36:24.407Z,17.20
2023-05-17T16:39:11.119Z,17.40
2023-05-17T16:41:59.406Z,17.10
2023-05-17T16:44:45.863Z,17.20
2023-05-17T16:47:32.826Z,17.40
2023-05-17T16:50:20.771Z,17.20
2023-05-17T16:53:07.737Z,17.50
2023-05-17T16:55:54.606Z,17.20
2023-05-17T16:58:42.600Z,17.10
2023-05-17T17:01:29.491Z,17.00
2023-05-17T17:04:17.044Z,17.20
2023-05-17T17:07:03.966Z,17.20
2023-05-17T17:09:50.417Z,17.00
2023-05-17T17:12:37.181Z,16.70
2023-05-17T17:15:25.165Z,16.50
2023-05-17T17:18:11.532Z,16.20
2023-05-17T17:20:58.416Z,16.20
2023-05-17T17:23:46.129Z,16.30
2023-05-17T17:26:35.225Z,16.50
2023-05-17T17:29:21.803Z,16.40
2023-05-17T17:32:10.295Z,16.10
2023-05-17T17:34:56.935Z,15.60
2023-05-17T17:37:43.432Z,15.60
2023-05-17T17:40:30.109Z,15.70
2023-05-17T17:43:17.301Z,16.00
2023-05-17T17:46:04.154Z,15.80
2023-05-17T17:48:52.404Z,15.80
2023-05-17T17:51:40.010Z,15.60
2023-05-17T17:54:26.456Z,15.60
2023-05-17T17:57:12.894Z,15.40
2023-05-17T17:59:59.253Z,15.10
2023-05-17T18:02:46.189Z,15.10
2023-05-17T18:05:34.323Z,14.80
2023-05-17T18:08:21.086Z,14.70
2023-05-17T18:11:07.651Z,14.70
2023-05-17T18:13:54.429Z,14.50
2023-05-17T18:16:40.921Z,14.40
2023-05-17T18:19:27.964Z,14.20
2023-05-17T18:22:17.063Z,14.10
2023-05-17T18:25:04.120Z,14.00
2023-05-17T18:27:50.907Z,13.70
2023-05-17T18:30:37.231Z,13.70
2023-05-17T18:33:23.625Z,13.80
2023-05-17T18:36:10.814Z,13.70
2023-05-17T18:39:00.867Z,13.60
2023-05-17T18:41:47.456Z,13.50
2023-05-17T18:44:34.889Z,13.40
2023-05-17T18:47:23.325Z,13.50
2023-05-17T18:50:10.766Z,13.40
2023-05-17T18:53:00.123Z,13.30
2023-05-17T18:55:48.433Z,13.20
2023-05-17T18:58:35.361Z,13.20
2023-05-17T19:01:22.649Z,13.10
2023-05-17T19:04:09.577Z,13.10
2023-05-17T19:06:56.702Z,13.10
2023-05-17T19:09:43.683Z,12.90
2023-05-17T19:12:31.522Z,12.90
2023-05-17T19:15:18.504Z,12.80
2023-05-17T19:18:05.434Z,12.80
2023-05-17T19:20:51.964Z,12.80
2023-05-17T19:23:38.415Z,12.60
2023-05-17T19:26:24.875Z,12.70
2023-05-17T19:29:12.611Z,12.60
2023-05-17T19:31:59.255Z,12.50
2023-05-17T19:34:46.041Z,12.40
2023-05-17T19:37:32.662Z,12.40
2023-05-17T19:40:22.105Z,12.30
2023-05-17T19:43:09.251Z,12.30
2023-05-17T19:45:57.376Z,12.10
2023-05-17T19:48:43.988Z,12.10
2023-05-17T19:51:31.555Z,12.20
2023-05-17T19:54:18.363Z,12.00
2023-05-17T19:57:04.870Z,12.00
2023-05-17T19:59:52.178Z,11.90
2023-05-17T20:02:41.354Z,12.00
2023-05-17T20:05:28.462Z,11.80
2023-05-17T20:08:15.100Z,11.90
2023-05-17T20:11:01.583Z,11.80
2023-05-17T20:13:48.147Z,11.80
2023-05-17T20:16:35.093Z,11.80
2023-05-17T20:19:23.983Z,11.80
2023-05-17T20:22:10.884Z,11.70
2023-05-17T20:24:58.090Z,11.70
2023-05-17T20:27:45.047Z,11.80
2023-05-17T20:30:32.083Z,11.70
2023-05-17T20:33:21.906Z,11.60
2023-05-17T20:36:11.764Z,11.60
2023-05-17T20:38:58.295Z,11.60
2023-05-17T20:41:44.894Z,11.50
2023-05-17T20:44:33.264Z,11.50
2023-05-17T20:47:19.871Z,11.50
2023-05-17T20:50:08.224Z,11.50
2023-05-17T20:52:56.377Z,11.60
2023-05-17T20:55:44.467Z,11.40
2023-05-17T20:58:31.236Z,11.30
2023-05-17T21:01:17.697Z,11.40
2023-05-17T21:04:04.568Z,11.40
2023-05-17T21:06:52.340Z,11.40
2023-05-17T21:09:40.494Z,11.30
2023-05-17T21:12:27.151Z,11.20
2023-05-17T21:15:17.022Z,11.20
2023-05-17T21:18:04.000Z,11.20
2023-05-17T21:20:51.730Z,11.20
2023-05-17T21:23:38.166Z,11.20
2023-05-17T21:29:14.336Z,11.10
2023-05-17T21:32:00.917Z,11.00
2023-05-17T21:34:47.332Z,11.00
2023-05-17T21:37:33.792Z,10.90
2023-05-17T21:40:20.322Z,10.80
2023-05-17T21:43:09.873Z,10.80
2023-05-17T21:45:56.599Z,10.70
2023-05-17T21:48:43.504Z,10.60
2023-05-17T21:51:30.073Z,10.60
2023-05-17T21:54:16.638Z,10.50
2023-05-17T21:57:03.487Z,10.50
2023-05-17T21:59:52.516Z,10.40
2023-05-17T22:02:39.498Z,10.40
2023-05-17T22:05:26.053Z,10.30
2023-05-17T22:08:12.549Z,10.30
2023-05-17T22:10:59.092Z,10.20
2023-05-17T22:13:46.001Z,10.10
2023-05-17T22:16:34.858Z,10.00
2023-05-17T22:19:23.279Z,10.00
2023-05-17T22:22:10.594Z,10.00
2023-05-17T22:24:57.174Z,9.90
2023-05-17T22:27:43.406Z,9.90
2023-05-17T22:30:30.096Z,9.90
2023-05-17T22:33:18.185Z,9.80
2023-05-17T22:36:05.889Z,9.80
2023-05-17T22:38:52.875Z,9.70
2023-05-17T22:41:39.207Z,9.70
2023-05-17T22:44:26.333Z,9.40
2023-05-17T22:47:14.856Z,9.50
2023-05-17T22:50:03.354Z,9.60
2023-05-17T22:52:50.805Z,9.50
2023-05-17T22:55:37.454Z,9.40
2023-05-17T22:58:24.451Z,9.50
2023-05-17T23:01:12.794Z,9.30
2023-05-17T23:04:00.905Z,9.40
2023-05-17T23:06:49.293Z,9.30
2023-05-17T23:09:38.013Z,9.30
2023-05-17T23:12:26.543Z,9.20
2023-05-17T23:15:13.632Z,9.20
2023-05-17T23:18:00.150Z,9.20
2023-05-17T23:20:48.852Z,9.20
2023-05-17T23:23:37.961Z,9.20
2023-05-17T23:26:24.823Z,9.10
2023-05-17T23:29:12.633Z,9.10
2023-05-17T23:31:59.509Z,9.00
2023-05-17T23:34:47.305Z,9.00
2023-05-17T23:37:33.891Z,9.00
2023-05-17T23:40:22.327Z,8.90
2023-05-17T23:43:10.333Z,8.90
2023-05-17T23:45:57.527Z,8.90
2023-05-17T23:48:44.633Z,8.80
2023-05-17T23:51:33.218Z,8.70
2023-05-17T23:54:20.054Z,8.70
2023-05-17T23:57:08.999Z,8.50
2023-05-17T23:59:56.058Z,8.50
